Time;durP1;ratioP1;P1;durP2;ratioP2;P2;SDS_P1;SDS_P2;PMS_P1;PMS_P2;Temp;Humidity;BMP_temperature;BMP_pressure;BME280_temperature;BME280_humidity;BME280_pressure;Samples;Min_cycle;Max_cycle;Signal;HPM_P1;HPM_P2
2021/05/03 00:00:32;;;;;;;8.78;6.85;;;;;;;16.31;71.29;99336.36;1710751;82;21275;-66
2021/05/03 00:03:00;;;;;;;13.65;7.37;;;;;;;16.27;71.53;99350.18;1762971;79;21117;-64
2021/05/03 00:05:27;;;;;;;11.12;7.17;;;;;;;16.23;71.73;99336.46;1757108;80;21209;-64
2021/05/03 00:07:55;;;;;;;10.72;6.53;;;;;;;16.24;71.68;99344.75;1772778;79;21176;-67
2021/05/03 00:10:24;;;;;;;10.15;7.50;;;;;;;16.24;71.68;99342.09;1761554;80;21125;-66
2021/05/03 00:12:52;;;;;;;12.63;8.00;;;;;;;16.22;71.72;99334.80;1768940;80;21168;-65
2021/05/03 00:15:21;;;;;;;10.82;7.17;;;;;;;16.18;71.89;99332.72;1756804;80;21096;-63
2021/05/03 00:17:48;;;;;;;10.50;7.10;;;;;;;16.10;72.18;99330.47;1751298;80;21381;-66
2021/05/03 00:20:17;;;;;;;13.32;6.00;;;;;;;16.10;72.19;99328.33;1755671;80;21188;-65
2021/05/03 00:22:46;;;;;;;12.18;7.95;;;;;;;16.13;72.23;99342.05;1734324;80;21632;-64
2021/05/03 00:25:15;;;;;;;12.60;8.53;;;;;;;16.15;72.28;99348.50;1759561;80;21184;-65
2021/05/03 00:27:44;;;;;;;14.13;8.03;;;;;;;16.12;72.23;99352.36;1740000;80;21113;-65
2021/05/03 00:30:15;;;;;;;10.63;7.53;;;;;;;16.09;72.52;99362.52;1763046;79;21207;-65
2021/05/03 00:32:44;;;;;;;12.07;7.60;;;;;;;16.03;72.52;99354.77;1760345;80;21149;-65
2021/05/03 00:35:13;;;;;;;10.82;7.15;;;;;;;16.04;72.57;99356.44;1754949;80;21219;-66
2021/05/03 00:37:40;;;;;;;14.53;8.88;;;;;;;16.10;72.42;99357.00;1762760;80;21174;-66
2021/05/03 00:40:09;;;;;;;11.83;7.55;;;;;;;16.13;72.26;99351.84;1761558;80;21194;-65
2021/05/03 00:42:37;;;;;;;11.45;8.40;;;;;;;16.10;72.23;99356.19;1762844;80;21576;-64
2021/05/03 00:45:10;;;;;;;13.50;8.78;;;;;;;16.07;72.31;99359.20;1744340;80;21184;-64
2021/05/03 00:47:38;;;;;;;13.25;7.50;;;;;;;16.03;72.37;99355.29;1755646;80;21189;-65
2021/05/03 00:50:09;;;;;;;10.95;6.17;;;;;;;16.03;72.35;99360.59;1761821;80;21193;-63
2021/05/03 00:52:38;;;;;;;13.25;7.50;;;;;;;16.07;72.30;99377.78;1756903;80;21647;-64
2021/05/03 00:55:08;;;;;;;10.30;7.95;;;;;;;16.06;72.20;99379.62;1752337;80;21491;-65
2021/05/03 00:57:36;;;;;;;12.73;8.68;;;;;;;16.01;72.28;99377.20;1770633;80;21221;-65
2021/05/03 01:00:07;;;;;;;12.75;7.17;;;;;;;15.95;72.42;99384.05;1752088;79;21580;-67
2021/05/03 01:02:34;;;;;;;12.40;7.50;;;;;;;15.94;72.39;99386.39;1748022;80;21161;-66
2021/05/03 01:05:02;;;;;;;13.22;7.25;;;;;;;15.99;72.23;99382.69;1745224;80;21134;-66
2021/05/03 01:07:30;;;;;;;12.85;8.38;;;;;;;16.00;72.13;99379.02;1761074;79;22182;-65
2021/05/03 01:09:57;;;;;;;11.15;7.90;;;;;;;15.98;72.04;99386.34;1734564;80;21646;-66
2021/05/03 01:12:25;;;;;;;14.53;6.67;;;;;;;15.91;72.04;99390.22;1755718;80;21233;-67
2021/05/03 01:14:53;;;;;;;12.15;6.97;;;;;;;15.85;71.96;99394.10;1763301;80;21160;-65
2021/05/03 01:17:32;;;;;;;9.83;6.17;;;;;;;15.78;71.89;99397.50;1764738;79;21113;-65
2021/05/03 01:20:11;;;;;;;13.78;6.58;;;;;;;15.76;71.82;99394.69;1768280;79;22387;-66
2021/05/03 01:22:39;;;;;;;9.85;6.10;;;;;;;15.81;71.53;99385.69;1734488;80;21651;-65
2021/05/03 01:25:08;;;;;;;11.20;6.35;;;;;;;15.85;71.22;99395.43;1767858;79;21185;-64
2021/05/03 01:27:35;;;;;;;12.58;6.75;;;;;;;15.85;70.95;99401.55;1704993;82;21211;-67
2021/05/03 01:30:07;;;;;;;9.58;7.20;;;;;;;15.81;70.62;99403.44;1699153;82;21133;-67
2021/05/03 01:32:35;;;;;;;10.82;6.05;;;;;;;15.72;70.55;99398.69;1711426;83;21431;-67
2021/05/03 01:35:04;;;;;;;8.33;5.30;;;;;;;15.64;70.47;99397.44;1761433;80;21132;-66
2021/05/03 01:37:32;;;;;;;9.20;4.40;;;;;;;15.59;69.78;99390.02;1703705;83;21181;-65
2021/05/03 01:39:59;;;;;;;8.70;5.53;;;;;;;15.60;69.30;99391.16;1755877;80;21105;-65
2021/05/03 01:42:27;;;;;;;8.20;4.97;;;;;;;15.59;68.55;99392.66;1761083;79;21181;-65
2021/05/03 01:45:01;;;;;;;8.73;4.83;;;;;;;15.54;68.40;99397.69;1747841;80;21156;-66
2021/05/03 01:47:30;;;;;;;8.05;4.75;;;;;;;15.47;68.25;99416.64;1760999;80;21203;-67
2021/05/03 01:49:57;;;;;;;11.20;5.95;;;;;;;15.39;68.14;99414.87;1744354;80;21192;-65
2021/05/03 01:52:25;;;;;;;8.15;4.70;;;;;;;15.33;68.57;99420.88;1685202;83;21522;-66
2021/05/03 01:54:54;;;;;;;6.50;3.72;;;;;;;15.32;68.51;99423.22;1740910;80;21157;-66
2021/05/03 01:57:22;;;;;;;10.93;4.22;;;;;;;15.35;67.94;99418.89;1764350;80;21202;-66
2021/05/03 01:59:52;;;;;;;7.50;4.35;;;;;;;15.32;67.73;99405.48;1768993;79;21165;-65
2021/05/03 02:02:20;;;;;;;6.40;3.95;;;;;;;15.25;67.69;99413.82;1771842;79;21145;-65
2021/05/03 02:04:48;;;;;;;8.98;4.00;;;;;;;15.16;66.87;99416.19;1765445;80;21176;-64
2021/05/03 02:07:16;;;;;;;5.53;3.22;;;;;;;15.05;66.50;99414.27;1769681;79;21130;-67
2021/05/03 02:09:45;;;;;;;8.60;2.98;;;;;;;14.99;65.36;99425.56;1703818;83;22315;-67
2021/05/03 02:12:13;;;;;;;6.95;3.20;;;;;;;14.90;64.31;99413.38;1726513;81;21188;-66
2021/05/03 02:14:41;;;;;;;6.00;2.60;;;;;;;14.81;63.31;99421.87;1694618;82;21188;-67
2021/05/03 02:17:09;;;;;;;5.58;2.47;;;;;;;14.70;62.62;99422.26;1767901;79;21638;-66
2021/05/03 02:19:38;;;;;;;4.97;2.40;;;;;;;14.61;62.26;99422.80;1768801;80;21451;-64
2021/05/03 02:22:06;;;;;;;4.83;2.10;;;;;;;14.55;62.30;99431.39;1761740;80;22756;-66
2021/05/03 02:24:34;;;;;;;4.62;2.33;;;;;;;14.53;62.66;99433.89;1767391;79;21152;-66
2021/05/03 02:27:01;;;;;;;5.28;2.50;;;;;;;14.58;62.39;99436.85;1757567;80;21177;-66
2021/05/03 02:29:28;;;;;;;4.60;1.85;;;;;;;14.55;62.41;99432.71;1766994;80;21192;-66
2021/05/03 02:31:56;;;;;;;5.17;2.58;;;;;;;14.49;62.20;99432.91;1765734;79;21128;-66
2021/05/03 02:34:23;;;;;;;5.30;2.30;;;;;;;14.45;62.45;99443.50;1749679;80;21557;-66
2021/05/03 02:36:55;;;;;;;7.05;2.37;;;;;;;14.42;62.82;99444.34;1777533;79;21647;-66
2021/05/03 02:39:19;;;;;;;5.75;2.87;;;;;;;14.36;63.25;99448.50;1760990;79;21211;-68
2021/05/03 02:41:47;;;;;;;4.92;2.60;;;;;;;14.35;63.62;99441.55;1765324;79;21147;-65
2021/05/03 02:44:15;;;;;;;5.47;2.90;;;;;;;14.29;64.12;99441.74;1782772;79;21159;-66
2021/05/03 02:46:43;;;;;;;7.92;2.35;;;;;;;14.28;64.29;99444.05;1754642;80;21173;-66
2021/05/03 02:49:11;;;;;;;5.67;2.90;;;;;;;14.31;63.17;99456.95;1696705;82;21176;-64
2021/05/03 02:51:41;;;;;;;4.25;1.80;;;;;;;14.28;62.78;99454.63;1736087;80;21179;-64
2021/05/03 02:54:09;;;;;;;5.17;2.52;;;;;;;14.20;61.77;99481.61;1761792;80;21197;-66
2021/05/03 02:56:36;;;;;;;5.70;2.65;;;;;;;14.09;61.25;99490.23;1736643;80;21187;-68
2021/05/03 02:59:04;;;;;;;7.65;2.20;;;;;;;13.99;60.99;99488.77;1702190;82;21202;-64
2021/05/03 03:01:32;;;;;;;5.67;2.37;;;;;;;13.88;61.31;99487.27;1767662;79;21176;-65
2021/05/03 03:04:00;;;;;;;4.67;2.25;;;;;;;13.77;61.28;99500.34;1765581;80;21181;-67
2021/05/03 03:06:27;;;;;;;3.77;1.65;;;;;;;13.67;61.18;99511.58;1727830;81;21187;-63
2021/05/03 03:08:55;;;;;;;6.15;2.02;;;;;;;13.54;61.30;99516.83;1766969;80;21104;-68
2021/05/03 03:11:23;;;;;;;6.55;2.22;;;;;;;13.45;61.64;99507.25;1737853;80;21128;-65
2021/05/03 03:13:50;;;;;;;4.45;1.98;;;;;;;13.36;61.83;99517.46;1768805;80;21137;-65
2021/05/03 03:16:22;;;;;;;5.10;2.15;;;;;;;13.31;61.86;99514.45;1716439;81;21192;-66
2021/05/03 03:18:49;;;;;;;7.50;2.40;;;;;;;13.35;61.95;99507.39;1731065;82;21117;-64
2021/05/03 03:21:17;;;;;;;5.33;2.72;;;;;;;13.33;61.97;99524.38;1746807;81;21182;-71
2021/05/03 03:23:45;;;;;;;4.28;2.00;;;;;;;13.26;62.17;99514.11;1690403;83;21552;-69
2021/05/03 03:26:12;;;;;;;4.30;1.90;;;;;;;13.19;62.48;99521.34;1682236;84;21141;-66
2021/05/03 03:28:40;;;;;;;6.10;2.30;;;;;;;13.11;62.43;99538.52;1682072;85;21157;-68
2021/05/03 03:31:07;;;;;;;4.30;1.80;;;;;;;13.02;62.23;99542.09;1684854;84;21208;-68
2021/05/03 03:33:34;;;;;;;4.70;1.80;;;;;;;12.93;61.11;99547.84;1665143;85;21216;-71
2021/05/03 03:36:04;;;;;;;5.78;1.87;;;;;;;12.81;60.80;99542.02;1717527;82;21188;-68
2021/05/03 03:38:32;;;;;;;3.83;1.90;;;;;;;12.72;60.52;99556.65;1702931;83;21219;-65
2021/05/03 03:41:00;;;;;;;4.28;1.57;;;;;;;12.63;60.54;99561.06;1713640;81;21200;-66
2021/05/03 03:43:28;;;;;;;6.30;1.70;;;;;;;12.55;60.27;99567.11;1744397;81;21200;-64
2021/05/03 03:45:56;;;;;;;3.80;1.60;;;;;;;12.47;59.43;99574.14;1718581;83;21184;-68
2021/05/03 03:48:24;;;;;;;7.22;1.92;;;;;;;12.38;59.59;99574.09;1743160;81;21457;-63
2021/05/03 03:50:51;;;;;;;3.55;1.57;;;;;;;12.31;58.60;99580.97;1744768;82;21133;-63
2021/05/03 03:53:19;;;;;;;4.03;1.60;;;;;;;12.24;58.78;99595.27;1743436;81;21695;-66
2021/05/03 03:55:46;;;;;;;4.67;1.52;;;;;;;12.18;58.49;99631.97;1731230;82;21121;-65
2021/05/03 03:58:14;;;;;;;5.10;1.92;;;;;;;12.12;58.82;99612.78;1716502;82;21188;-66
2021/05/03 04:00:41;;;;;;;4.33;1.90;;;;;;;12.04;57.93;99614.38;1735212;81;21352;-60
2021/05/03 04:03:10;;;;;;;16.25;2.67;;;;;;;11.93;57.92;99623.83;1742055;81;21146;-64
2021/05/03 04:06:09;;;;;;;8.40;2.35;;;;;;;11.83;58.25;99642.30;1733459;81;21215;-65
2021/05/03 04:27:00;;;;;;;4.97;1.70;;;;;;;10.92;59.43;99674.61;1857924;75;22836;-62
2021/05/03 04:29:28;;;;;;;3.62;1.32;;;;;;;10.89;59.96;99669.66;1836721;76;21169;-63
2021/05/03 04:31:55;;;;;;;6.33;2.10;;;;;;;10.91;59.71;99697.98;1821148;77;21228;-63
2021/05/03 04:46:18;;;;;;;4.20;1.65;;;;;;;12.53;54.49;99712.89;1825648;76;22741;-60
2021/05/03 04:48:47;;;;;;;3.55;1.20;;;;;;;12.47;54.26;99707.39;1781859;79;21444;-60
2021/05/03 04:51:14;;;;;;;3.62;1.50;;;;;;;12.27;55.08;99686.44;1764864;79;21176;-60
2021/05/03 04:53:43;;;;;;;4.30;1.70;;;;;;;12.16;55.56;99688.81;1805691;78;21092;-64
2021/05/03 04:56:11;;;;;;;4.20;1.30;;;;;;;12.05;54.83;99676.69;1804766;79;21177;-61
2021/05/03 04:58:39;;;;;;;3.80;1.45;;;;;;;11.98;55.89;99691.43;1748785;81;21128;-60
2021/05/03 05:01:08;;;;;;;6.08;1.10;;;;;;;11.89;55.97;99678.63;1742993;81;21246;-63
2021/05/03 05:03:35;;;;;;;3.58;1.35;;;;;;;11.81;55.95;99703.58;1806540;79;21214;-61
2021/05/03 05:06:05;;;;;;;3.50;1.10;;;;;;;11.73;56.10;99679.76;1791411;79;21143;-61
2021/05/03 05:08:32;;;;;;;4.12;1.37;;;;;;;11.64;56.32;99684.11;1806645;79;21124;-61
2021/05/03 05:11:00;;;;;;;3.95;1.10;;;;;;;11.57;56.44;99704.13;1804070;79;21167;-61
2021/05/03 05:13:28;;;;;;;5.42;1.30;;;;;;;11.51;56.46;99701.56;1805434;79;21207;-62
2021/05/03 05:15:55;;;;;;;3.02;0.90;;;;;;;11.46;56.38;99698.54;1794224;79;21469;-62
2021/05/03 05:18:24;;;;;;;4.90;1.25;;;;;;;11.43;56.76;99700.17;1808881;79;21147;-60
2021/05/03 05:20:52;;;;;;;3.37;1.05;;;;;;;11.43;56.25;99704.59;1805467;79;21128;-60
2021/05/03 05:23:21;;;;;;;2.52;1.10;;;;;;;11.41;56.42;99684.16;1812672;79;21152;-61
2021/05/03 05:25:49;;;;;;;3.10;1.12;;;;;;;11.42;56.27;99727.97;1759684;80;21116;-61
2021/05/03 05:28:16;;;;;;;3.17;1.17;;;;;;;11.44;56.73;99694.41;1797850;79;21179;-62
2021/05/03 05:30:43;;;;;;;3.35;1.00;;;;;;;11.48;56.17;99691.81;1791839;78;21211;-61
2021/05/03 05:33:11;;;;;;;4.15;1.02;;;;;;;11.50;56.39;99668.81;1774263;79;21219;-60
2021/05/03 05:35:38;;;;;;;2.58;1.12;;;;;;;11.52;56.74;99670.80;1793812;79;21545;-60
2021/05/03 05:38:06;;;;;;;5.37;0.80;;;;;;;11.60;55.88;99669.59;1760716;79;21160;-61
2021/05/03 05:40:34;;;;;;;3.17;0.70;;;;;;;11.71;55.59;99677.27;1761615;80;21887;-61
2021/05/03 05:43:05;;;;;;;2.58;0.75;;;;;;;11.82;54.80;99678.06;1785459;79;21124;-60
2021/05/03 05:45:34;;;;;;;1.52;0.53;;;;;;;11.84;54.85;99678.74;1800435;79;21193;-60
2021/05/03 05:48:03;;;;;;;2.52;0.90;;;;;;;11.85;54.43;99673.33;1769037;78;21182;-58
2021/05/03 05:50:32;;;;;;;2.92;0.85;;;;;;;11.88;54.44;99677.45;1765443;79;21162;-57
2021/05/03 05:53:01;;;;;;;2.20;0.68;;;;;;;11.93;54.11;99675.73;1758956;79;21186;-59
2021/05/03 05:55:28;;;;;;;2.72;0.90;;;;;;;11.94;53.94;99690.08;1783053;79;21985;-59
2021/05/03 05:57:57;;;;;;;3.02;1.00;;;;;;;11.93;53.81;99684.45;1748356;80;21155;-59
2021/05/03 06:00:25;;;;;;;2.52;0.78;;;;;;;11.96;53.83;99691.25;1769470;80;22241;-60
2021/05/03 06:02:52;;;;;;;2.15;0.60;;;;;;;11.98;54.19;99674.30;1766233;80;22069;-59
2021/05/03 06:05:21;;;;;;;1.92;0.55;;;;;;;11.97;53.57;99692.42;1738496;80;21258;-59
2021/05/03 06:07:51;;;;;;;1.87;0.60;;;;;;;12.01;53.62;99685.05;1776619;80;21151;-60
2021/05/03 06:10:18;;;;;;;2.55;0.75;;;;;;;12.04;53.25;99715.89;1780001;79;21111;-60
2021/05/03 06:12:46;;;;;;;2.12;0.53;;;;;;;12.07;53.09;99693.69;1748749;79;21202;-61
2021/05/03 06:15:14;;;;;;;2.12;0.70;;;;;;;12.11;52.71;99712.17;1749517;80;21456;-60
2021/05/03 06:17:42;;;;;;;2.37;0.60;;;;;;;12.11;53.20;99710.86;1766472;80;21234;-60
2021/05/03 06:20:12;;;;;;;1.60;0.50;;;;;;;12.18;53.44;99716.36;1754104;80;21167;-67
2021/05/03 06:22:40;;;;;;;2.47;0.60;;;;;;;12.28;53.36;99717.62;1776188;80;21171;-72
2021/05/03 06:25:09;;;;;;;2.08;0.80;;;;;;;12.36;52.59;99730.39;1747174;80;21609;-66
2021/05/03 06:27:37;;;;;;;4.62;0.50;;;;;;;12.42;51.56;99719.25;1773600;80;21182;-61
2021/05/03 06:30:08;;;;;;;4.78;0.70;;;;;;;12.41;51.29;99729.45;1702380;82;22225;-63
2021/05/03 06:32:35;;;;;;;2.42;0.50;;;;;;;12.41;51.64;99745.28;1718263;82;21634;-62
2021/05/03 06:35:04;;;;;;;1.75;0.47;;;;;;;12.42;51.08;99740.36;1782395;79;21585;-61
2021/05/03 06:37:32;;;;;;;2.15;0.57;;;;;;;12.43;51.12;99734.08;1786119;79;21147;-62
2021/05/03 06:40:01;;;;;;;2.05;0.50;;;;;;;12.43;51.46;99770.20;1777307;79;21166;-63
2021/05/03 06:42:29;;;;;;;2.70;0.78;;;;;;;12.38;50.63;99752.17;1776465;79;21490;-63
2021/05/03 06:44:56;;;;;;;2.42;0.60;;;;;;;12.36;50.82;99748.86;1767702;78;21214;-63
2021/05/03 06:47:25;;;;;;;3.50;0.55;;;;;;;12.36;50.72;99744.08;1702676;82;21203;-62
2021/05/03 06:49:53;;;;;;;1.87;0.50;;;;;;;12.37;51.66;99742.62;1733732;82;21184;-64
2021/05/03 06:52:20;;;;;;;3.42;0.68;;;;;;;12.47;51.91;99742.52;1728309;81;21163;-60
2021/05/03 06:54:48;;;;;;;5.25;1.10;;;;;;;12.58;51.01;99775.79;1728140;82;21259;-63
2021/05/03 06:57:16;;;;;;;1.77;0.55;;;;;;;12.62;50.73;99758.66;1771887;79;21164;-62
2021/05/03 06:59:44;;;;;;;1.60;0.50;;;;;;;12.61;51.05;99775.48;1786204;79;21106;-66
2021/05/03 07:02:13;;;;;;;2.47;0.70;;;;;;;12.57;51.15;99791.27;1735712;80;21165;-65
2021/05/03 07:04:42;;;;;;;2.77;0.93;;;;;;;12.57;50.73;99793.91;1739539;81;21125;-59
2021/05/03 07:07:09;;;;;;;2.47;0.70;;;;;;;12.58;50.91;99759.45;1789605;78;21258;-59
2021/05/03 07:09:37;;;;;;;1.92;0.53;;;;;;;12.66;51.37;99773.23;1705097;82;21199;-62
2021/05/03 07:12:09;;;;;;;1.65;0.55;;;;;;;12.73;50.64;99780.87;1741607;81;21218;-61
2021/05/03 07:14:38;;;;;;;1.75;0.50;;;;;;;12.77;51.49;99776.94;1739724;82;21116;-61
2021/05/03 07:17:06;;;;;;;2.08;0.68;;;;;;;12.84;51.36;99774.52;1758826;79;21451;-62
2021/05/03 07:19:34;;;;;;;2.72;0.50;;;;;;;12.87;50.01;99789.23;1793797;79;21196;-60
2021/05/03 07:22:06;;;;;;;2.47;0.80;;;;;;;12.79;50.27;99821.20;1802366;79;21552;-67
2021/05/03 07:24:38;;;;;;;1.62;0.57;;;;;;;12.70;50.47;99813.34;1762510;79;21129;-60
2021/05/03 07:27:08;;;;;;;1.72;0.45;;;;;;;12.59;50.86;99803.82;1781509;79;21156;-61
2021/05/03 07:29:36;;;;;;;3.95;0.50;;;;;;;12.55;51.81;99816.98;1798627;79;21157;-63
2021/05/03 07:32:05;;;;;;;2.98;0.68;;;;;;;12.58;51.16;99818.02;1796950;79;21350;-61
2021/05/03 07:34:33;;;;;;;7.05;0.70;;;;;;;12.59;51.39;99815.70;1781101;79;21168;-65
2021/05/03 07:37:02;;;;;;;2.05;0.62;;;;;;;12.59;51.07;99826.25;1787493;79;21633;-62
2021/05/03 07:39:30;;;;;;;5.60;0.80;;;;;;;12.53;51.08;99811.86;1793685;79;21113;-62
2021/05/03 07:41:58;;;;;;;2.72;0.80;;;;;;;12.44;51.16;99832.55;1799608;79;21180;-62
2021/05/03 07:44:28;;;;;;;1.70;0.50;;;;;;;12.40;51.51;99820.13;1803357;79;22150;-64
2021/05/03 07:46:56;;;;;;;1.52;0.50;;;;;;;12.35;51.47;99825.02;1811429;78;21107;-62
2021/05/03 07:49:23;;;;;;;1.87;0.70;;;;;;;12.35;51.38;99815.78;1787548;80;21187;-63
2021/05/03 07:51:52;;;;;;;1.85;0.50;;;;;;;12.34;50.93;99815.92;1793353;78;21179;-64
2021/05/03 07:54:19;;;;;;;2.22;0.60;;;;;;;12.30;51.29;99825.95;1769065;79;21667;-60
2021/05/03 07:56:47;;;;;;;4.17;0.80;;;;;;;12.26;51.48;99816.19;1771232;79;21182;-60
2021/05/03 07:59:14;;;;;;;1.92;0.72;;;;;;;12.29;52.01;99825.63;1749738;80;21149;-62
2021/05/03 08:01:42;;;;;;;3.47;0.78;;;;;;;12.34;51.68;99848.44;1780621;79;21584;-61
2021/05/03 08:04:10;;;;;;;3.22;0.68;;;;;;;12.39;51.87;99834.31;1782601;79;21101;-61
2021/05/03 08:06:37;;;;;;;2.25;0.50;;;;;;;12.44;51.44;99838.66;1792692;79;21192;-63
2021/05/03 08:09:06;;;;;;;2.47;0.80;;;;;;;12.51;51.93;99851.23;1729181;82;21368;-61
2021/05/03 08:11:34;;;;;;;3.17;0.88;;;;;;;12.59;51.87;99845.58;1706234;82;21188;-62
2021/05/03 08:14:02;;;;;;;3.67;1.02;;;;;;;12.66;50.74;99839.21;1740052;81;21196;-62
2021/05/03 08:16:36;;;;;;;1.72;0.60;;;;;;;12.75;50.39;99836.16;1735691;81;21210;-62
2021/05/03 08:19:00;;;;;;;1.57;0.60;;;;;;;12.81;49.58;99848.27;1778440;79;21541;-60
2021/05/03 08:21:29;;;;;;;2.05;0.93;;;;;;;12.89;49.94;99847.50;1758070;79;21192;-61
2021/05/03 08:23:57;;;;;;;4.53;0.98;;;;;;;12.92;49.59;99844.56;1780921;79;21172;-62
2021/05/03 08:26:24;;;;;;;3.47;0.90;;;;;;;12.89;48.80;99857.23;1781599;79;21200;-68
2021/05/03 08:28:52;;;;;;;2.25;0.78;;;;;;;12.72;48.97;99845.19;1780018;79;21148;-62
2021/05/03 08:31:20;;;;;;;2.80;0.80;;;;;;;12.63;50.71;99851.38;1780064;79;21149;-65
2021/05/03 08:33:48;;;;;;;2.52;0.90;;;;;;;12.58;49.81;99876.08;1756031;79;21935;-62
2021/05/03 08:36:17;;;;;;;2.98;1.15;;;;;;;12.50;49.03;99881.26;1766265;79;21129;-63
2021/05/03 08:38:44;;;;;;;4.20;1.50;;;;;;;12.42;49.76;99874.06;1772111;79;21595;-64
2021/05/03 08:41:14;;;;;;;2.70;1.07;;;;;;;12.35;48.82;99846.62;1769866;79;21552;-63
2021/05/03 08:43:46;;;;;;;3.80;1.00;;;;;;;12.26;49.54;99850.48;1785935;79;21161;-62
2021/05/03 08:46:26;;;;;;;2.83;0.90;;;;;;;12.22;49.69;99850.45;1786672;79;22252;-61
2021/05/03 09:01:47;;;;;;;3.17;1.17;;;;;;;12.70;50.08;99831.82;1872930;74;22699;-74
2021/05/03 09:04:15;;;;;;;2.70;1.10;;;;;;;12.73;49.10;99850.83;1852973;77;21119;-73
2021/05/03 09:07:06;;;;;;;4.78;1.40;;;;;;;12.82;48.71;99860.47;1850849;77;22258;-73
2021/05/03 09:09:45;;;;;;;3.27;1.15;;;;;;;12.89;48.60;99858.56;1823577;77;21184;-73
2021/05/03 09:12:19;;;;;;;3.42;1.22;;;;;;;12.94;48.38;99851.83;1851810;77;21189;-72
2021/05/03 09:14:59;;;;;;;3.22;1.40;;;;;;;12.96;48.19;99874.98;1852599;76;21143;-72
2021/05/03 09:17:41;;;;;;;3.90;1.10;;;;;;;12.97;48.33;99875.80;1852411;77;21167;-72
2021/05/03 09:20:14;;;;;;;5.92;1.70;;;;;;;13.01;48.78;99873.19;1810102;78;21174;-71
2021/05/03 09:22:56;;;;;;;3.47;1.50;;;;;;;13.06;47.88;99852.94;1844149;77;21144;-70
2021/05/03 09:28:28;;;;;;;2.60;0.90;;;;;;;13.17;46.94;99844.28;1772102;79;23302;-62
2021/05/03 09:30:59;;;;;;;4.03;1.55;;;;;;;13.13;46.60;99857.94;1738116;82;21116;-60
2021/05/03 09:36:25;;;;;;;3.10;1.37;;;;;;;13.10;46.31;99845.88;1840491;76;22731;-62
2021/05/03 09:38:53;;;;;;;3.83;1.60;;;;;;;13.13;47.07;99852.19;1806956;79;21105;-62
2021/05/03 09:41:29;;;;;;;4.00;1.50;;;;;;;13.17;47.02;99851.38;1801274;79;21192;-67
2021/05/03 09:44:07;;;;;;;4.65;1.60;;;;;;;13.22;46.16;99880.00;1786759;79;21133;-63
2021/05/03 09:46:43;;;;;;;3.77;1.42;;;;;;;13.20;45.94;99845.80;1810613;79;21175;-63
2021/05/03 09:49:16;;;;;;;5.20;2.05;;;;;;;13.18;46.79;99890.04;1807718;78;21172;-60
2021/05/03 09:51:52;;;;;;;3.87;1.47;;;;;;;13.12;46.44;99865.05;1816802;79;21112;-62
2021/05/03 09:54:29;;;;;;;3.45;1.42;;;;;;;13.11;47.29;99895.09;1810240;79;21352;-65
2021/05/03 09:57:10;;;;;;;2.95;1.22;;;;;;;13.08;45.89;99911.24;1811334;79;21108;-64
2021/05/03 09:59:48;;;;;;;4.03;1.90;;;;;;;12.95;46.04;99898.40;1815599;79;21136;-63
2021/05/03 10:02:28;;;;;;;3.80;1.80;;;;;;;12.90;46.55;99897.20;1793753;79;21207;-67
2021/05/03 10:05:16;;;;;;;3.95;1.45;;;;;;;12.96;46.67;99934.88;1789676;79;21104;-64
2021/05/03 10:07:43;;;;;;;4.78;1.60;;;;;;;12.99;46.84;99905.05;1806035;79;21464;-63
2021/05/03 10:12:39;;;;;;;5.35;1.47;;;;;;;13.09;46.29;99904.96;1734220;81;21612;-63
2021/05/03 10:15:11;;;;;;;2.80;1.10;;;;;;;13.15;45.51;99927.32;1737194;81;21139;-65
2021/05/03 10:17:39;;;;;;;3.12;1.00;;;;;;;13.14;45.53;99927.79;1734219;82;21538;-61
2021/05/03 10:20:08;;;;;;;2.60;1.15;;;;;;;13.11;45.18;99897.73;1797195;79;21190;-68
2021/05/03 10:22:36;;;;;;;2.27;0.90;;;;;;;13.06;45.10;99910.54;1803894;79;21171;-64
2021/05/03 10:25:12;;;;;;;5.10;1.00;;;;;;;13.05;45.44;99899.66;1771739;79;21155;-64
2021/05/03 10:27:41;;;;;;;2.70;0.90;;;;;;;13.11;46.00;99900.38;1813721;78;21602;-67
2021/05/03 10:30:13;;;;;;;5.58;1.25;;;;;;;13.26;45.11;99887.94;1787521;79;21144;-63
2021/05/03 10:32:42;;;;;;;3.58;1.17;;;;;;;13.27;45.23;99944.59;1793125;79;22391;-65
2021/05/03 10:35:28;;;;;;;2.40;1.00;;;;;;;13.31;45.00;99916.05;1807392;78;21119;-62
2021/05/03 10:37:56;;;;;;;;;;;;;;;13.33;44.60;99903.55;1805924;78;21113;-61
2021/05/03 10:40:30;;;;;;;5.75;1.17;;;;;;;13.32;45.11;99928.33;1808408;78;20283;-61
2021/05/03 10:43:12;;;;;;;4.35;1.00;;;;;;;13.28;45.28;99911.07;1812804;78;21136;-63
2021/05/03 10:48:41;;;;;;;;;;;;;;;13.40;45.01;99928.88;1811852;78;21183;-68
2021/05/03 10:51:08;;;;;;;3.35;1.40;;;;;;;13.40;44.88;99900.66;1787468;78;20309;-70
2021/05/03 10:53:41;;;;;;;3.12;1.20;;;;;;;13.44;44.88;99926.28;1794705;78;21211;-70
2021/05/03 10:56:09;;;;;;;3.20;0.98;;;;;;;13.48;44.93;99939.05;1789600;78;21162;-75
2021/05/03 10:58:57;;;;;;;2.70;1.10;;;;;;;13.61;45.12;99925.91;1787038;80;21406;-73
2021/05/03 11:01:27;;;;;;;2.80;1.02;;;;;;;13.75;44.82;99937.23;1793357;78;21215;-67
2021/05/03 11:04:03;;;;;;;3.85;1.52;;;;;;;13.87;44.62;99936.49;1808169;78;21168;-68
2021/05/03 11:06:41;;;;;;;;;;;;;;;13.89;43.76;99974.22;1806847;78;21670;-65
2021/05/03 11:09:39;;;;;;;4.22;1.42;;;;;;;13.88;43.81;99962.80;1816780;78;20263;-63
2021/05/03 11:12:12;;;;;;;3.85;1.70;;;;;;;13.80;43.33;99946.04;1806565;78;21182;-69
2021/05/03 11:15:21;;;;;;;5.70;1.30;;;;;;;13.75;43.32;99942.06;1815950;78;21163;-64
2021/05/03 11:18:22;;;;;;;6.90;1.60;;;;;;;13.75;43.29;99950.47;1787736;78;21492;-65
2021/05/03 11:21:14;;;;;;;3.95;1.45;;;;;;;13.71;43.65;99944.66;1780905;80;21124;-65
2021/05/03 11:23:38;;;;;;;3.62;1.32;;;;;;;13.67;43.73;99923.99;1803361;78;21135;-66
2021/05/03 11:26:29;;;;;;;2.70;1.05;;;;;;;13.75;44.17;99931.95;1803620;78;21338;-65
2021/05/03 11:29:08;;;;;;;3.02;1.12;;;;;;;13.87;43.33;99919.30;1793570;78;21184;-63
2021/05/03 11:31:37;;;;;;;4.28;1.55;;;;;;;13.99;43.12;99922.05;1802778;78;21156;-65
2021/05/03 11:34:11;;;;;;;4.40;1.20;;;;;;;14.09;43.28;99908.21;1809279;78;21167;-72
2021/05/03 11:36:39;;;;;;;3.27;1.55;;;;;;;14.18;43.16;99935.54;1815797;78;21187;-65
2021/05/03 11:39:14;;;;;;;3.08;1.27;;;;;;;14.22;42.61;99909.59;1801288;78;21197;-63
2021/05/03 11:41:53;;;;;;;6.67;1.50;;;;;;;14.24;43.13;99908.45;1794426;78;21167;-67
2021/05/03 11:46:49;;;;;;;4.35;1.17;;;;;;;14.41;42.97;99929.20;1781339;77;21668;-63
2021/05/03 11:49:19;;;;;;;3.30;1.35;;;;;;;14.45;42.45;99917.30;1802064;78;21571;-61
2021/05/03 11:51:57;;;;;;;2.52;0.90;;;;;;;14.49;42.48;99921.77;1794412;78;21366;-62
2021/05/03 11:54:33;;;;;;;3.02;1.45;;;;;;;14.50;41.46;99914.18;1807362;78;21176;-66
2021/05/03 11:57:06;;;;;;;1.80;0.70;;;;;;;14.51;40.85;99930.41;1799530;78;21126;-63
2021/05/03 11:59:34;;;;;;;3.50;1.00;;;;;;;14.41;40.51;99918.62;1800595;78;21169;-66
2021/05/03 12:02:08;;;;;;;2.55;1.00;;;;;;;14.40;40.82;99912.16;1761636;80;21155;-63
2021/05/03 12:04:44;;;;;;;3.75;1.15;;;;;;;14.47;40.91;99940.49;1800613;78;21557;-64
2021/05/03 12:07:23;;;;;;;3.12;1.20;;;;;;;14.59;41.07;99909.77;1804827;78;21133;-64
2021/05/03 12:10:11;;;;;;;2.37;0.82;;;;;;;14.73;40.66;99910.48;1801510;78;21151;-66
2021/05/03 12:12:47;;;;;;;2.95;1.10;;;;;;;14.88;41.07;99904.08;1801944;77;21106;-66
2021/05/03 12:15:26;;;;;;;2.47;0.85;;;;;;;15.07;40.50;99896.81;1803859;77;21112;-61
2021/05/03 12:18:01;;;;;;;3.22;1.32;;;;;;;15.16;38.83;99939.55;1806972;78;21253;-62
2021/05/03 12:20:33;;;;;;;3.52;1.30;;;;;;;15.13;39.20;99900.11;1805519;78;21176;-66
2021/05/03 12:23:09;;;;;;;4.12;1.50;;;;;;;15.12;38.69;99941.70;1793009;78;21141;-62
2021/05/03 12:25:56;;;;;;;3.87;1.20;;;;;;;15.03;38.95;99938.71;1787327;78;21113;-62
2021/05/03 12:28:27;;;;;;;;;;;;;;;14.89;38.65;99933.52;1804951;78;21069;-62
2021/05/03 12:30:58;;;;;;;4.85;1.20;;;;;;;14.83;38.52;99930.22;1802146;78;21134;-63
2021/05/03 12:33:27;;;;;;;4.30;0.85;;;;;;;14.74;39.08;99927.20;1799486;78;21689;-65
2021/05/03 12:35:58;;;;;;;3.70;1.20;;;;;;;14.67;39.17;99935.77;1783357;78;21180;-67
2021/05/03 12:38:28;;;;;;;3.65;0.90;;;;;;;14.65;39.02;99966.07;1758210;80;21140;-62
2021/05/03 12:40:58;;;;;;;3.22;1.07;;;;;;;14.63;38.81;99929.66;1799193;78;21702;-64
2021/05/03 12:43:31;;;;;;;4.25;1.22;;;;;;;14.63;39.37;99947.69;1777933;78;21169;-61
2021/05/03 12:46:13;;;;;;;5.70;1.85;;;;;;;14.70;39.87;99913.95;1789697;78;21175;-65